sensor_id;sensor_type;location;lat;lon;timestamp;P1;durP1;ratioP1;P2;durP2;ratioP2
14096;SDS011;7125;48.106;11.544;2022-09-09T00:02:24;2.50;;;1.42;;
14096;SDS011;7125;48.106;11.544;2022-09-09T00:04:59;2.25;;;1.38;;
14096;SDS011;7125;48.106;11.544;2022-09-09T00:07:38;4.22;;;2.10;;
14096;SDS011;7125;48.106;11.544;2022-09-09T00:10:18;1.63;;;1.52;;
14096;SDS011;7125;48.106;11.544;2022-09-09T00:12:54;8.03;;;4.40;;
14096;SDS011;7125;48.106;11.544;2022-09-09T00:15:29;36.77;;;27.30;;
14096;SDS011;7125;48.106;11.544;2022-09-09T00:18:01;36.63;;;26.83;;
14096;SDS011;7125;48.106;11.544;2022-09-09T00:20:40;23.33;;;16.65;;
14096;SDS011;7125;48.106;11.544;2022-09-09T00:23:14;9.53;;;7.57;;
14096;SDS011;7125;48.106;11.544;2022-09-09T00:25:49;9.13;;;6.03;;
14096;SDS011;7125;48.106;11.544;2022-09-09T00:28:26;8.50;;;5.93;;
14096;SDS011;7125;48.106;11.544;2022-09-09T00:30:59;7.97;;;5.93;;
14096;SDS011;7125;48.106;11.544;2022-09-09T00:33:30;7.72;;;6.65;;
14096;SDS011;7125;48.106;11.544;2022-09-09T00:35:57;9.73;;;6.47;;
14096;SDS011;7125;48.106;11.544;2022-09-09T00:38:28;4.63;;;3.43;;
14096;SDS011;7125;48.106;11.544;2022-09-09T00:41:00;5.27;;;3.73;;
14096;SDS011;7125;48.106;11.544;2022-09-09T00:43:35;5.87;;;4.33;;
14096;SDS011;7125;48.106;11.544;2022-09-09T00:46:06;5.53;;;3.90;;
14096;SDS011;7125;48.106;11.544;2022-09-09T00:49:02;3.87;;;3.03;;
14096;SDS011;7125;48.106;11.544;2022-09-09T00:51:39;3.43;;;2.73;;
14096;SDS011;7125;48.106;11.544;2022-09-09T00:57:12;2.90;;;1.53;;
14096;SDS011;7125;48.106;11.544;2022-09-09T00:59:48;3.90;;;2.40;;
14096;SDS011;7125;48.106;11.544;2022-09-09T01:02:21;2.90;;;1.80;;
14096;SDS011;7125;48.106;11.544;2022-09-09T01:04:54;2.30;;;1.70;;
14096;SDS011;7125;48.106;11.544;2022-09-09T01:07:28;4.73;;;1.60;;
14096;SDS011;7125;48.106;11.544;2022-09-09T01:09:55;1.87;;;1.40;;
14096;SDS011;7125;48.106;11.544;2022-09-09T01:12:26;3.03;;;1.75;;
14096;SDS011;7125;48.106;11.544;2022-09-09T01:15:07;4.30;;;1.65;;
14096;SDS011;7125;48.106;11.544;2022-09-09T01:17:50;2.63;;;1.50;;
14096;SDS011;7125;48.106;11.544;2022-09-09T01:20:23;3.13;;;1.47;;
14096;SDS011;7125;48.106;11.544;2022-09-09T01:23:10;2.03;;;1.80;;
14096;SDS011;7125;48.106;11.544;2022-09-09T01:28:58;1.33;;;1.23;;
14096;SDS011;7125;48.106;11.544;2022-09-09T01:31:36;1.83;;;1.53;;
14096;SDS011;7125;48.106;11.544;2022-09-09T01:34:10;1.55;;;1.45;;
14096;SDS011;7125;48.106;11.544;2022-09-09T01:36:40;1.43;;;1.20;;
14096;SDS011;7125;48.106;11.544;2022-09-09T01:39:11;2.97;;;1.23;;
14096;SDS011;7125;48.106;11.544;2022-09-09T01:41:41;3.25;;;1.35;;
14096;SDS011;7125;48.106;11.544;2022-09-09T01:44:11;1.30;;;1.20;;
14096;SDS011;7125;48.106;11.544;2022-09-09T01:46:42;0.98;;;0.93;;
14096;SDS011;7125;48.106;11.544;2022-09-09T01:49:16;2.73;;;1.43;;
14096;SDS011;7125;48.106;11.544;2022-09-09T01:51:44;1.90;;;1.27;;
14096;SDS011;7125;48.106;11.544;2022-09-09T01:54:16;1.70;;;1.60;;
14096;SDS011;7125;48.106;11.544;2022-09-09T01:56:50;1.45;;;1.35;;
14096;SDS011;7125;48.106;11.544;2022-09-09T01:59:28;2.90;;;1.17;;
14096;SDS011;7125;48.106;11.544;2022-09-09T02:02:15;1.35;;;1.13;;
14096;SDS011;7125;48.106;11.544;2022-09-09T02:04:55;1.37;;;0.93;;
14096;SDS011;7125;48.106;11.544;2022-09-09T02:07:30;1.20;;;1.07;;
14096;SDS011;7125;48.106;11.544;2022-09-09T02:10:09;3.53;;;1.05;;
14096;SDS011;7125;48.106;11.544;2022-09-09T02:12:47;3.15;;;1.50;;
14096;SDS011;7125;48.106;11.544;2022-09-09T02:15:22;2.30;;;1.23;;
14096;SDS011;7125;48.106;11.544;2022-09-09T02:17:54;1.10;;;1.10;;
14096;SDS011;7125;48.106;11.544;2022-09-09T02:20:24;4.00;;;2.60;;
14096;SDS011;7125;48.106;11.544;2022-09-09T02:22:56;1.73;;;1.40;;
14096;SDS011;7125;48.106;11.544;2022-09-09T02:25:26;2.72;;;1.10;;
14096;SDS011;7125;48.106;11.544;2022-09-09T02:28:02;1.45;;;1.10;;
14096;SDS011;7125;48.106;11.544;2022-09-09T02:30:32;1.25;;;1.15;;
14096;SDS011;7125;48.106;11.544;2022-09-09T02:33:02;3.40;;;1.17;;
14096;SDS011;7125;48.106;11.544;2022-09-09T02:35:41;1.85;;;1.10;;
14096;SDS011;7125;48.106;11.544;2022-09-09T02:38:12;3.75;;;1.40;;
14096;SDS011;7125;48.106;11.544;2022-09-09T02:40:49;1.40;;;1.30;;
14096;SDS011;7125;48.106;11.544;2022-09-09T02:43:18;4.93;;;1.23;;
14096;SDS011;7125;48.106;11.544;2022-09-09T02:45:47;1.50;;;1.10;;
14096;SDS011;7125;48.106;11.544;2022-09-09T02:48:26;3.20;;;1.30;;
14096;SDS011;7125;48.106;11.544;2022-09-09T02:51:03;3.13;;;1.10;;
14096;SDS011;7125;48.106;11.544;2022-09-09T02:53:38;1.63;;;1.47;;
14096;SDS011;7125;48.106;11.544;2022-09-09T02:56:11;1.10;;;1.00;;
14096;SDS011;7125;48.106;11.544;2022-09-09T02:58:44;2.70;;;1.40;;
14096;SDS011;7125;48.106;11.544;2022-09-09T03:01:12;1.93;;;1.20;;
14096;SDS011;7125;48.106;11.544;2022-09-09T03:03:39;2.90;;;1.00;;
14096;SDS011;7125;48.106;11.544;2022-09-09T03:06:11;2.63;;;1.30;;
14096;SDS011;7125;48.106;11.544;2022-09-09T03:08:39;1.40;;;1.30;;
14096;SDS011;7125;48.106;11.544;2022-09-09T03:11:07;1.20;;;1.10;;
14096;SDS011;7125;48.106;11.544;2022-09-09T03:13:36;1.53;;;1.43;;
14096;SDS011;7125;48.106;11.544;2022-09-09T03:16:06;4.55;;;1.38;;
14096;SDS011;7125;48.106;11.544;2022-09-09T03:18:39;1.50;;;1.13;;
14096;SDS011;7125;48.106;11.544;2022-09-09T03:21:07;2.30;;;1.43;;
14096;SDS011;7125;48.106;11.544;2022-09-09T03:23:37;1.40;;;1.30;;
14096;SDS011;7125;48.106;11.544;2022-09-09T03:26:04;1.23;;;1.13;;
14096;SDS011;7125;48.106;11.544;2022-09-09T03:28:38;2.33;;;0.73;;
14096;SDS011;7125;48.106;11.544;2022-09-09T03:31:07;1.40;;;1.13;;
14096;SDS011;7125;48.106;11.544;2022-09-09T03:33:38;3.83;;;1.50;;
14096;SDS011;7125;48.106;11.544;2022-09-09T03:36:07;1.33;;;1.00;;
14096;SDS011;7125;48.106;11.544;2022-09-09T03:38:34;5.03;;;1.73;;
14096;SDS011;7125;48.106;11.544;2022-09-09T03:41:01;3.13;;;1.93;;
14096;SDS011;7125;48.106;11.544;2022-09-09T03:43:29;1.30;;;1.17;;
14096;SDS011;7125;48.106;11.544;2022-09-09T03:45:56;1.07;;;0.90;;
14096;SDS011;7125;48.106;11.544;2022-09-09T03:48:27;2.57;;;1.10;;
14096;SDS011;7125;48.106;11.544;2022-09-09T03:50:54;1.10;;;1.00;;
14096;SDS011;7125;48.106;11.544;2022-09-09T03:53:24;2.80;;;1.30;;
14096;SDS011;7125;48.106;11.544;2022-09-09T03:55:52;2.22;;;1.23;;
14096;SDS011;7125;48.106;11.544;2022-09-09T03:58:22;4.30;;;1.23;;
14096;SDS011;7125;48.106;11.544;2022-09-09T04:00:53;2.17;;;1.30;;
14096;SDS011;7125;48.106;11.544;2022-09-09T04:03:20;3.37;;;1.43;;
14096;SDS011;7125;48.106;11.544;2022-09-09T04:05:51;2.17;;;1.20;;
14096;SDS011;7125;48.106;11.544;2022-09-09T04:08:20;3.40;;;1.23;;
14096;SDS011;7125;48.106;11.544;2022-09-09T04:10:48;2.10;;;1.30;;
14096;SDS011;7125;48.106;11.544;2022-09-09T04:13:17;4.10;;;1.47;;
14096;SDS011;7125;48.106;11.544;2022-09-09T04:15:50;1.87;;;1.30;;
14096;SDS011;7125;48.106;11.544;2022-09-09T04:18:18;3.53;;;1.07;;
14096;SDS011;7125;48.106;11.544;2022-09-09T04:20:46;1.57;;;1.47;;
14096;SDS011;7125;48.106;11.544;2022-09-09T04:23:15;1.30;;;1.20;;
14096;SDS011;7125;48.106;11.544;2022-09-09T04:25:44;0.93;;;0.93;;
14096;SDS011;7125;48.106;11.544;2022-09-09T04:28:12;2.65;;;1.10;;
14096;SDS011;7125;48.106;11.544;2022-09-09T04:30:40;1.27;;;1.27;;
14096;SDS011;7125;48.106;11.544;2022-09-09T04:33:06;2.20;;;1.20;;
14096;SDS011;7125;48.106;11.544;2022-09-09T04:35:34;2.27;;;1.03;;
14096;SDS011;7125;48.106;11.544;2022-09-09T04:38:01;1.53;;;1.37;;
14096;SDS011;7125;48.106;11.544;2022-09-09T04:40:31;1.20;;;1.10;;
14096;SDS011;7125;48.106;11.544;2022-09-09T04:42:58;1.17;;;1.10;;
14096;SDS011;7125;48.106;11.544;2022-09-09T04:45:26;2.97;;;1.67;;
14096;SDS011;7125;48.106;11.544;2022-09-09T04:47:53;1.73;;;1.30;;
14096;SDS011;7125;48.106;11.544;2022-09-09T04:50:21;1.40;;;1.30;;
14096;SDS011;7125;48.106;11.544;2022-09-09T04:52:54;3.07;;;1.40;;
14096;SDS011;7125;48.106;11.544;2022-09-09T04:55:21;1.93;;;1.47;;
14096;SDS011;7125;48.106;11.544;2022-09-09T04:57:49;2.00;;;1.20;;
14096;SDS011;7125;48.106;11.544;2022-09-09T05:00:16;1.70;;;1.30;;
14096;SDS011;7125;48.106;11.544;2022-09-09T05:02:44;1.30;;;1.20;;
14096;SDS011;7125;48.106;11.544;2022-09-09T05:05:12;2.45;;;2.25;;
14096;SDS011;7125;48.106;11.544;2022-09-09T05:07:40;1.33;;;1.17;;
14096;SDS011;7125;48.106;11.544;2022-09-09T05:10:07;2.33;;;2.05;;
14096;SDS011;7125;48.106;11.544;2022-09-09T05:12:35;2.77;;;1.33;;
14096;SDS011;7125;48.106;11.544;2022-09-09T05:15:05;0.93;;;0.93;;
14096;SDS011;7125;48.106;11.544;2022-09-09T05:17:32;3.78;;;1.65;;
14096;SDS011;7125;48.106;11.544;2022-09-09T05:19:59;3.47;;;1.45;;
14096;SDS011;7125;48.106;11.544;2022-09-09T05:22:29;1.33;;;1.20;;
14096;SDS011;7125;48.106;11.544;2022-09-09T05:24:56;2.60;;;1.03;;
14096;SDS011;7125;48.106;11.544;2022-09-09T05:27:23;6.95;;;1.42;;
14096;SDS011;7125;48.106;11.544;2022-09-09T05:29:51;3.00;;;1.35;;
14096;SDS011;7125;48.106;11.544;2022-09-09T05:32:19;1.57;;;1.20;;
14096;SDS011;7125;48.106;11.544;2022-09-09T05:34:48;3.55;;;2.28;;
14096;SDS011;7125;48.106;11.544;2022-09-09T05:37:15;1.60;;;1.50;;
14096;SDS011;7125;48.106;11.544;2022-09-09T05:39:43;1.43;;;1.33;;
14096;SDS011;7125;48.106;11.544;2022-09-09T05:42:11;1.13;;;1.03;;
14096;SDS011;7125;48.106;11.544;2022-09-09T05:44:38;2.27;;;1.20;;
14096;SDS011;7125;48.106;11.544;2022-09-09T05:47:04;1.50;;;1.37;;
14096;SDS011;7125;48.106;11.544;2022-09-09T05:49:34;1.90;;;1.10;;
14096;SDS011;7125;48.106;11.544;2022-09-09T05:52:02;1.20;;;1.00;;
14096;SDS011;7125;48.106;11.544;2022-09-09T05:54:29;2.13;;;1.17;;
14096;SDS011;7125;48.106;11.544;2022-09-09T05:56:56;3.38;;;1.42;;
14096;SDS011;7125;48.106;11.544;2022-09-09T05:59:24;1.97;;;1.40;;
14096;SDS011;7125;48.106;11.544;2022-09-09T06:01:54;1.20;;;1.07;;
14096;SDS011;7125;48.106;11.544;2022-09-09T06:04:27;0.90;;;0.90;;
14096;SDS011;7125;48.106;11.544;2022-09-09T06:06:57;2.10;;;0.97;;
14096;SDS011;7125;48.106;11.544;2022-09-09T06:09:24;2.87;;;1.20;;
14096;SDS011;7125;48.106;11.544;2022-09-09T06:11:51;3.50;;;1.53;;
14096;SDS011;7125;48.106;11.544;2022-09-09T06:14:21;6.23;;;2.33;;
14096;SDS011;7125;48.106;11.544;2022-09-09T06:16:50;1.00;;;0.87;;
14096;SDS011;7125;48.106;11.544;2022-09-09T06:19:20;2.15;;;1.00;;
14096;SDS011;7125;48.106;11.544;2022-09-09T06:21:49;2.17;;;1.17;;
14096;SDS011;7125;48.106;11.544;2022-09-09T06:24:18;2.27;;;0.87;;
14096;SDS011;7125;48.106;11.544;2022-09-09T06:26:45;0.63;;;0.60;;
14096;SDS011;7125;48.106;11.544;2022-09-09T06:29:18;2.47;;;1.00;;
14096;SDS011;7125;48.106;11.544;2022-09-09T06:31:45;2.35;;;0.70;;
14096;SDS011;7125;48.106;11.544;2022-09-09T06:34:15;1.30;;;0.70;;
14096;SDS011;7125;48.106;11.544;2022-09-09T06:36:46;0.97;;;0.97;;
14096;SDS011;7125;48.106;11.544;2022-09-09T06:39:13;1.13;;;1.00;;
14096;SDS011;7125;48.106;11.544;2022-09-09T06:41:42;1.20;;;1.10;;
14096;SDS011;7125;48.106;11.544;2022-09-09T06:44:32;1.95;;;0.90;;
14096;SDS011;7125;48.106;11.544;2022-09-09T06:46:59;3.50;;;1.08;;
14096;SDS011;7125;48.106;11.544;2022-09-09T06:49:26;1.63;;;1.02;;
14096;SDS011;7125;48.106;11.544;2022-09-09T06:51:53;1.83;;;0.80;;
14096;SDS011;7125;48.106;11.544;2022-09-09T06:54:21;2.05;;;1.23;;
14096;SDS011;7125;48.106;11.544;2022-09-09T06:56:50;2.47;;;0.88;;
14096;SDS011;7125;48.106;11.544;2022-09-09T06:59:22;1.77;;;1.02;;
14096;SDS011;7125;48.106;11.544;2022-09-09T07:01:52;3.60;;;0.77;;
14096;SDS011;7125;48.106;11.544;2022-09-09T07:04:21;0.77;;;0.70;;
14096;SDS011;7125;48.106;11.544;2022-09-09T07:06:48;2.80;;;1.00;;
14096;SDS011;7125;48.106;11.544;2022-09-09T07:09:21;0.75;;;0.65;;
14096;SDS011;7125;48.106;11.544;2022-09-09T07:11:52;2.75;;;0.93;;
14096;SDS011;7125;48.106;11.544;2022-09-09T07:14:21;4.10;;;1.00;;
14096;SDS011;7125;48.106;11.544;2022-09-09T07:16:54;4.50;;;1.20;;
14096;SDS011;7125;48.106;11.544;2022-09-09T07:19:22;3.33;;;1.17;;
14096;SDS011;7125;48.106;11.544;2022-09-09T07:21:52;0.98;;;0.85;;
14096;SDS011;7125;48.106;11.544;2022-09-09T07:24:21;3.13;;;1.17;;
14096;SDS011;7125;48.106;11.544;2022-09-09T07:26:49;2.42;;;1.15;;
14096;SDS011;7125;48.106;11.544;2022-09-09T07:29:19;1.25;;;1.15;;
14096;SDS011;7125;48.106;11.544;2022-09-09T07:31:46;2.40;;;1.15;;
14096;SDS011;7125;48.106;11.544;2022-09-09T07:34:17;2.08;;;1.23;;
14096;SDS011;7125;48.106;11.544;2022-09-09T07:36:44;1.33;;;0.70;;
14096;SDS011;7125;48.106;11.544;2022-09-09T07:39:12;2.10;;;0.90;;
14096;SDS011;7125;48.106;11.544;2022-09-09T07:41:47;5.88;;;1.10;;
14096;SDS011;7125;48.106;11.544;2022-09-09T07:44:20;1.90;;;0.98;;
14096;SDS011;7125;48.106;11.544;2022-09-09T07:46:54;8.88;;;2.70;;
14096;SDS011;7125;48.106;11.544;2022-09-09T07:49:28;11.70;;;6.50;;
14096;SDS011;7125;48.106;11.544;2022-09-09T07:51:55;5.63;;;1.83;;
14096;SDS011;7125;48.106;11.544;2022-09-09T07:54:22;1.38;;;1.27;;
14096;SDS011;7125;48.106;11.544;2022-09-09T07:56:50;2.35;;;2.15;;
14096;SDS011;7125;48.106;11.544;2022-09-09T07:59:22;2.80;;;2.30;;
14096;SDS011;7125;48.106;11.544;2022-09-09T08:01:52;2.95;;;2.53;;
14096;SDS011;7125;48.106;11.544;2022-09-09T08:04:22;3.35;;;3.13;;
14096;SDS011;7125;48.106;11.544;2022-09-09T08:06:51;4.25;;;3.95;;
14096;SDS011;7125;48.106;11.544;2022-09-09T08:09:21;8.02;;;2.35;;
14096;SDS011;7125;48.106;11.544;2022-09-09T08:11:50;3.20;;;2.90;;
14096;SDS011;7125;48.106;11.544;2022-09-09T08:14:17;3.90;;;3.47;;
14096;SDS011;7125;48.106;11.544;2022-09-09T08:16:47;1.60;;;1.50;;
14096;SDS011;7125;48.106;11.544;2022-09-09T08:19:18;3.60;;;1.50;;
14096;SDS011;7125;48.106;11.544;2022-09-09T08:21:46;1.98;;;1.25;;
14096;SDS011;7125;48.106;11.544;2022-09-09T08:24:14;1.20;;;0.80;;
14096;SDS011;7125;48.106;11.544;2022-09-09T08:26:44;0.90;;;0.90;;
14096;SDS011;7125;48.106;11.544;2022-09-09T08:29:14;1.13;;;1.02;;
14096;SDS011;7125;48.106;11.544;2022-09-09T08:31:42;4.97;;;3.08;;
14096;SDS011;7125;48.106;11.544;2022-09-09T08:34:13;3.80;;;1.30;;
14096;SDS011;7125;48.106;11.544;2022-09-09T08:36:43;3.30;;;1.23;;
14096;SDS011;7125;48.106;11.544;2022-09-09T08:39:12;6.80;;;1.52;;
14096;SDS011;7125;48.106;11.544;2022-09-09T08:44:55;3.78;;;1.70;;
14096;SDS011;7125;48.106;11.544;2022-09-09T08:47:35;1.90;;;1.70;;
14096;SDS011;7125;48.106;11.544;2022-09-09T08:50:19;2.53;;;1.25;;
14096;SDS011;7125;48.106;11.544;2022-09-09T08:52:57;1.55;;;1.45;;
14096;SDS011;7125;48.106;11.544;2022-09-09T08:55:33;2.97;;;1.63;;
14096;SDS011;7125;48.106;11.544;2022-09-09T08:58:07;1.25;;;0.68;;
14096;SDS011;7125;48.106;11.544;2022-09-09T09:00:41;1.10;;;0.77;;
14096;SDS011;7125;48.106;11.544;2022-09-09T09:03:21;1.98;;;1.10;;
14096;SDS011;7125;48.106;11.544;2022-09-09T09:05:57;2.00;;;1.17;;
14096;SDS011;7125;48.106;11.544;2022-09-09T09:08:33;1.20;;;1.10;;
14096;SDS011;7125;48.106;11.544;2022-09-09T09:11:06;1.65;;;1.30;;
14096;SDS011;7125;48.106;11.544;2022-09-09T09:13:34;2.85;;;1.30;;
14096;SDS011;7125;48.106;11.544;2022-09-09T09:16:10;2.65;;;1.10;;
14096;SDS011;7125;48.106;11.544;2022-09-09T09:18:45;1.42;;;0.95;;
14096;SDS011;7125;48.106;11.544;2022-09-09T09:21:15;2.30;;;0.90;;
14096;SDS011;7125;48.106;11.544;2022-09-09T09:23:48;4.05;;;0.85;;
14096;SDS011;7125;48.106;11.544;2022-09-09T09:26:22;1.27;;;1.05;;
14096;SDS011;7125;48.106;11.544;2022-09-09T09:28:52;1.85;;;1.30;;
14096;SDS011;7125;48.106;11.544;2022-09-09T09:31:22;2.47;;;1.20;;
14096;SDS011;7125;48.106;11.544;2022-09-09T09:33:52;1.13;;;0.90;;
14096;SDS011;7125;48.106;11.544;2022-09-09T09:36:34;1.75;;;1.15;;
14096;SDS011;7125;48.106;11.544;2022-09-09T09:39:05;1.83;;;1.05;;
14096;SDS011;7125;48.106;11.544;2022-09-09T09:41:34;3.47;;;1.35;;
14096;SDS011;7125;48.106;11.544;2022-09-09T09:44:05;1.85;;;1.40;;
14096;SDS011;7125;48.106;11.544;2022-09-09T09:46:47;2.85;;;1.38;;
14096;SDS011;7125;48.106;11.544;2022-09-09T09:49:15;1.52;;;1.35;;
14096;SDS011;7125;48.106;11.544;2022-09-09T09:51:44;2.45;;;1.60;;
14096;SDS011;7125;48.106;11.544;2022-09-09T09:54:14;1.55;;;1.45;;
14096;SDS011;7125;48.106;11.544;2022-09-09T09:56:51;2.85;;;1.30;;
14096;SDS011;7125;48.106;11.544;2022-09-09T09:59:19;5.15;;;1.15;;
14096;SDS011;7125;48.106;11.544;2022-09-09T10:01:48;2.75;;;1.08;;
14096;SDS011;7125;48.106;11.544;2022-09-09T10:04:16;1.55;;;1.45;;
14096;SDS011;7125;48.106;11.544;2022-09-09T10:06:47;1.40;;;1.25;;
14096;SDS011;7125;48.106;11.544;2022-09-09T10:09:21;12.25;;;9.07;;
14096;SDS011;7125;48.106;11.544;2022-09-09T10:11:52;3.97;;;3.53;;
14096;SDS011;7125;48.106;11.544;2022-09-09T10:14:28;8.18;;;2.42;;
14096;SDS011;7125;48.106;11.544;2022-09-09T10:17:02;4.25;;;2.13;;
14096;SDS011;7125;48.106;11.544;2022-09-09T10:19:40;0.75;;;0.75;;
14096;SDS011;7125;48.106;11.544;2022-09-09T10:22:21;1.95;;;0.98;;
14096;SDS011;7125;48.106;11.544;2022-09-09T10:27:49;3.83;;;0.82;;
14096;SDS011;7125;48.106;11.544;2022-09-09T10:30:29;2.28;;;0.88;;
14096;SDS011;7125;48.106;11.544;2022-09-09T10:33:08;3.22;;;0.80;;
14096;SDS011;7125;48.106;11.544;2022-09-09T10:35:39;1.02;;;0.60;;
14096;SDS011;7125;48.106;11.544;2022-09-09T10:38:18;1.88;;;0.98;;
14096;SDS011;7125;48.106;11.544;2022-09-09T10:41:07;2.88;;;1.15;;
14096;SDS011;7125;48.106;11.544;2022-09-09T10:43:44;2.65;;;0.85;;
14096;SDS011;7125;48.106;11.544;2022-09-09T10:46:31;2.65;;;1.05;;
14096;SDS011;7125;48.106;11.544;2022-09-09T10:49:11;1.13;;;0.85;;
14096;SDS011;7125;48.106;11.544;2022-09-09T10:51:50;1.00;;;0.82;;
14096;SDS011;7125;48.106;11.544;2022-09-09T10:54:34;0.90;;;0.70;;
14096;SDS011;7125;48.106;11.544;2022-09-09T10:57:17;2.60;;;0.90;;
14096;SDS011;7125;48.106;11.544;2022-09-09T10:59:53;0.68;;;0.68;;
14096;SDS011;7125;48.106;11.544;2022-09-09T11:02:26;0.55;;;0.55;;
14096;SDS011;7125;48.106;11.544;2022-09-09T11:04:55;1.88;;;1.23;;
14096;SDS011;7125;48.106;11.544;2022-09-09T11:07:28;1.10;;;0.90;;
14096;SDS011;7125;48.106;11.544;2022-09-09T11:10:04;1.38;;;1.05;;
14096;SDS011;7125;48.106;11.544;2022-09-09T11:12:40;1.33;;;1.02;;
14096;SDS011;7125;48.106;11.544;2022-09-09T11:15:13;1.27;;;0.73;;
14096;SDS011;7125;48.106;11.544;2022-09-09T11:17:49;5.22;;;4.18;;
14096;SDS011;7125;48.106;11.544;2022-09-09T11:20:19;4.78;;;2.63;;
14096;SDS011;7125;48.106;11.544;2022-09-09T11:22:48;1.08;;;1.00;;
14096;SDS011;7125;48.106;11.544;2022-09-09T11:25:20;2.03;;;1.83;;
14096;SDS011;7125;48.106;11.544;2022-09-09T11:27:54;0.70;;;0.70;;
14096;SDS011;7125;48.106;11.544;2022-09-09T11:30:36;2.10;;;1.60;;
14096;SDS011;7125;48.106;11.544;2022-09-09T11:33:22;12.32;;;5.70;;
14096;SDS011;7125;48.106;11.544;2022-09-09T11:36:24;3.50;;;1.10;;
14096;SDS011;7125;48.106;11.544;2022-09-09T11:39:35;1.85;;;0.70;;
14096;SDS011;7125;48.106;11.544;2022-09-09T11:42:25;3.35;;;1.50;;
14096;SDS011;7125;48.106;11.544;2022-09-09T11:44:52;1.92;;;1.33;;
14096;SDS011;7125;48.106;11.544;2022-09-09T11:47:21;14.98;;;9.48;;
14096;SDS011;7125;48.106;11.544;2022-09-09T11:49:54;6.65;;;4.38;;
14096;SDS011;7125;48.106;11.544;2022-09-09T11:52:22;6.97;;;4.25;;
14096;SDS011;7125;48.106;11.544;2022-09-09T11:54:52;8.60;;;6.30;;
14096;SDS011;7125;48.106;11.544;2022-09-09T11:57:27;6.63;;;3.65;;
14096;SDS011;7125;48.106;11.544;2022-09-09T11:59:58;8.32;;;3.75;;
14096;SDS011;7125;48.106;11.544;2022-09-09T12:02:26;3.20;;;2.13;;
14096;SDS011;7125;48.106;11.544;2022-09-09T12:04:57;6.32;;;4.90;;
14096;SDS011;7125;48.106;11.544;2022-09-09T12:07:29;3.42;;;2.00;;
14096;SDS011;7125;48.106;11.544;2022-09-09T12:10:02;3.22;;;0.65;;
14096;SDS011;7125;48.106;11.544;2022-09-09T12:12:34;2.67;;;2.00;;
14096;SDS011;7125;48.106;11.544;2022-09-09T12:15:20;5.07;;;3.33;;
14096;SDS011;7125;48.106;11.544;2022-09-09T12:17:54;4.40;;;3.67;;
14096;SDS011;7125;48.106;11.544;2022-09-09T12:20:22;5.05;;;4.55;;
14096;SDS011;7125;48.106;11.544;2022-09-09T12:22:57;4.88;;;4.40;;
14096;SDS011;7125;48.106;11.544;2022-09-09T12:25:50;3.88;;;3.38;;
14096;SDS011;7125;48.106;11.544;2022-09-09T12:28:27;3.67;;;3.33;;
14096;SDS011;7125;48.106;11.544;2022-09-09T12:31:08;13.75;;;12.45;;
14096;SDS011;7125;48.106;11.544;2022-09-09T12:33:43;4.57;;;3.08;;
14096;SDS011;7125;48.106;11.544;2022-09-09T12:36:14;2.17;;;1.88;;
14096;SDS011;7125;48.106;11.544;2022-09-09T12:38:45;2.28;;;1.35;;
14096;SDS011;7125;48.106;11.544;2022-09-09T12:41:18;1.52;;;1.15;;
14096;SDS011;7125;48.106;11.544;2022-09-09T12:43:49;2.10;;;1.35;;
14096;SDS011;7125;48.106;11.544;2022-09-09T12:46:20;1.10;;;0.90;;
14096;SDS011;7125;48.106;11.544;2022-09-09T12:48:52;2.10;;;0.88;;
14096;SDS011;7125;48.106;11.544;2022-09-09T12:51:21;0.93;;;0.60;;
14096;SDS011;7125;48.106;11.544;2022-09-09T12:53:53;0.80;;;0.60;;
14096;SDS011;7125;48.106;11.544;2022-09-09T12:56:21;1.00;;;0.55;;
14096;SDS011;7125;48.106;11.544;2022-09-09T12:58:53;0.40;;;0.40;;
14096;SDS011;7125;48.106;11.544;2022-09-09T13:01:23;3.15;;;0.60;;
14096;SDS011;7125;48.106;11.544;2022-09-09T13:03:51;1.67;;;0.63;;
14096;SDS011;7125;48.106;11.544;2022-09-09T13:06:19;0.80;;;0.70;;
14096;SDS011;7125;48.106;11.544;2022-09-09T13:08:48;0.40;;;0.40;;
14096;SDS011;7125;48.106;11.544;2022-09-09T13:11:16;0.93;;;0.55;;
14096;SDS011;7125;48.106;11.544;2022-09-09T13:13:50;2.45;;;1.85;;
14096;SDS011;7125;48.106;11.544;2022-09-09T13:16:20;0.77;;;0.55;;
14096;SDS011;7125;48.106;11.544;2022-09-09T13:18:49;1.30;;;0.50;;
14096;SDS011;7125;48.106;11.544;2022-09-09T13:21:17;2.55;;;0.93;;
14096;SDS011;7125;48.106;11.544;2022-09-09T13:23:48;0.40;;;0.40;;
14096;SDS011;7125;48.106;11.544;2022-09-09T13:26:20;2.65;;;0.70;;
14096;SDS011;7125;48.106;11.544;2022-09-09T13:28:49;1.55;;;0.57;;
14096;SDS011;7125;48.106;11.544;2022-09-09T13:31:23;0.32;;;0.32;;
14096;SDS011;7125;48.106;11.544;2022-09-09T13:33:54;4.47;;;0.93;;
14096;SDS011;7125;48.106;11.544;2022-09-09T13:36:27;0.52;;;0.30;;
14096;SDS011;7125;48.106;11.544;2022-09-09T13:38:56;2.25;;;0.60;;
14096;SDS011;7125;48.106;11.544;2022-09-09T13:41:34;1.42;;;0.70;;
14096;SDS011;7125;48.106;11.544;2022-09-09T13:44:01;0.63;;;0.50;;
14096;SDS011;7125;48.106;11.544;2022-09-09T13:46:34;0.50;;;0.50;;
14096;SDS011;7125;48.106;11.544;2022-09-09T13:49:03;0.47;;;0.43;;
14096;SDS011;7125;48.106;11.544;2022-09-09T13:51:49;0.52;;;0.38;;
14096;SDS011;7125;48.106;11.544;2022-09-09T13:54:19;0.63;;;0.50;;
14096;SDS011;7125;48.106;11.544;2022-09-09T13:56:47;0.70;;;0.50;;
14096;SDS011;7125;48.106;11.544;2022-09-09T13:59:16;0.30;;;0.30;;
14096;SDS011;7125;48.106;11.544;2022-09-09T14:01:46;0.50;;;0.30;;
14096;SDS011;7125;48.106;11.544;2022-09-09T14:04:14;2.67;;;0.65;;
14096;SDS011;7125;48.106;11.544;2022-09-09T14:06:42;0.70;;;0.45;;
14096;SDS011;7125;48.106;11.544;2022-09-09T14:09:10;0.43;;;0.30;;
14096;SDS011;7125;48.106;11.544;2022-09-09T14:11:38;0.40;;;0.30;;
14096;SDS011;7125;48.106;11.544;2022-09-09T14:14:06;1.00;;;0.90;;
14096;SDS011;7125;48.106;11.544;2022-09-09T14:16:33;1.23;;;0.98;;
14096;SDS011;7125;48.106;11.544;2022-09-09T14:19:03;0.77;;;0.63;;
14096;SDS011;7125;48.106;11.544;2022-09-09T14:21:30;0.98;;;0.55;;
14096;SDS011;7125;48.106;11.544;2022-09-09T14:23:57;1.45;;;0.93;;
14096;SDS011;7125;48.106;11.544;2022-09-09T14:26:24;0.75;;;0.50;;
14096;SDS011;7125;48.106;11.544;2022-09-09T14:28:51;0.73;;;0.50;;
14096;SDS011;7125;48.106;11.544;2022-09-09T14:31:19;1.35;;;0.50;;
14096;SDS011;7125;48.106;11.544;2022-09-09T14:33:46;3.58;;;0.63;;
14096;SDS011;7125;48.106;11.544;2022-09-09T14:36:14;1.23;;;0.60;;
14096;SDS011;7125;48.106;11.544;2022-09-09T14:38:41;1.35;;;0.63;;
14096;SDS011;7125;48.106;11.544;2022-09-09T14:41:08;2.95;;;0.50;;
14096;SDS011;7125;48.106;11.544;2022-09-09T14:43:37;3.75;;;0.60;;
14096;SDS011;7125;48.106;11.544;2022-09-09T14:46:04;0.85;;;0.60;;
14096;SDS011;7125;48.106;11.544;2022-09-09T14:48:31;0.68;;;0.32;;
14096;SDS011;7125;48.106;11.544;2022-09-09T14:51:04;1.58;;;1.00;;
14096;SDS011;7125;48.106;11.544;2022-09-09T14:53:33;1.00;;;0.70;;
14096;SDS011;7125;48.106;11.544;2022-09-09T14:56:04;2.20;;;0.70;;
14096;SDS011;7125;48.106;11.544;2022-09-09T14:58:32;0.50;;;0.50;;
14096;SDS011;7125;48.106;11.544;2022-09-09T15:01:03;1.88;;;0.38;;
14096;SDS011;7125;48.106;11.544;2022-09-09T15:03:31;2.40;;;0.63;;
14096;SDS011;7125;48.106;11.544;2022-09-09T15:05:58;2.60;;;0.50;;
14096;SDS011;7125;48.106;11.544;2022-09-09T15:08:30;3.15;;;0.60;;
14096;SDS011;7125;48.106;11.544;2022-09-09T15:11:02;2.88;;;0.52;;
14096;SDS011;7125;48.106;11.544;2022-09-09T15:13:32;3.42;;;1.00;;
14096;SDS011;7125;48.106;11.544;2022-09-09T15:16:03;2.00;;;0.85;;
14096;SDS011;7125;48.106;11.544;2022-09-09T15:18:30;1.40;;;0.60;;
14096;SDS011;7125;48.106;11.544;2022-09-09T15:20:58;0.68;;;0.68;;
14096;SDS011;7125;48.106;11.544;2022-09-09T15:23:26;1.30;;;0.50;;
14096;SDS011;7125;48.106;11.544;2022-09-09T15:25:53;0.95;;;0.60;;
14096;SDS011;7125;48.106;11.544;2022-09-09T15:28:23;2.20;;;0.73;;